Time;durP1;ratioP1;P1;durP2;ratioP2;P2;SDS_P1;SDS_P2;PMS_P1;PMS_P2;Temp;Humidity;BMP_temperature;BMP_pressure;BME280_temperature;BME280_humidity;BME280_pressure;Samples;Min_cycle;Max_cycle;Signal;HPM_P1;HPM_P2
2023/12/03 00:00:08;;;;;;;;;;;;;;;;;;5057285;28;19920;-29
2023/12/03 00:02:34;;;;;;;;;;;;;;;;;;5057102;28;19913;-28
2023/12/03 00:05:00;;;;;;;;;;;;;;;;;;5056887;28;19921;-26
2023/12/03 00:07:26;;;;;;;;;;;;;;;;;;5057321;28;19909;-24
2023/12/03 00:09:52;;;;;;;;;;;;;;;;;;5057093;28;20350;-24
2023/12/03 00:12:18;;;;;;;;;;;;;;;;;;5057278;28;19913;-23
2023/12/03 00:14:44;;;;;;;;;;;;;;;;;;5057261;28;19999;-24
2023/12/03 00:17:10;;;;;;;;;;;;;;;;;;5056956;28;19955;-26
2023/12/03 00:19:36;;;;;;;;;;;;;;;;;;5056885;28;19924;-23
2023/12/03 00:22:02;;;;;;;;;;;;;;;;;;5056849;28;19909;-26
2023/12/03 00:24:28;;;;;;;;;;;;;;;;;;5056794;28;19914;-25
2023/12/03 00:26:55;;;;;;;;;;;;;;;;;;5056722;28;19909;-24
2023/12/03 00:29:21;;;;;;;;;;;;;;;;;;5055852;28;19920;-22
2023/12/03 00:31:47;;;;;;;;;;;;;;;;;;5056634;28;19931;-26
2023/12/03 00:34:13;;;;;;;;;;;;;;;;;;5056695;28;19909;-22
2023/12/03 00:36:39;;;;;;;;;;;;;;;;;;5056602;28;19924;-21
2023/12/03 00:39:06;;;;;;;;;;;;;;;;;;5055567;28;19909;-22
2023/12/03 00:41:32;;;;;;;;;;;;;;;;;;5056809;28;19908;-23
2023/12/03 00:43:58;;;;;;;;;;;;;;;;;;5056388;28;20382;-24
2023/12/03 00:46:24;;;;;;;;;;;;;;;;;;5056462;28;20205;-26
2023/12/03 00:48:50;;;;;;;;;;;;;;;;;;5056338;28;19909;-28
2023/12/03 00:51:15;;;;;;;;;;;;;;;;;;5056571;28;19955;-21
2023/12/03 00:53:42;;;;;;;;;;;;;;;;;;5056210;28;20389;-26
2023/12/03 00:56:08;;;;;;;;;;;;;;;;;;5056209;28;20007;-23
2023/12/03 00:58:33;;;;;;;;;;;;;;;;;;5056188;28;19944;-25
2023/12/03 01:00:59;;;;;;;;;;;;;;;;;;5056348;28;19909;-25
2023/12/03 01:03:25;;;;;;;;;;;;;;;;;;5055833;28;19928;-29
2023/12/03 01:05:51;;;;;;;;;;;;;;;;;;5056211;28;20248;-24
2023/12/03 01:08:17;;;;;;;;;;;;;;;;;;5055999;28;19909;-25
2023/12/03 01:10:43;;;;;;;;;;;;;;;;;;5055907;28;19909;-30
2023/12/03 01:13:11;;;;;;;;;;;;;;;;;;5055025;28;20249;-26
2023/12/03 01:15:37;;;;;;;;;;;;;;;;;;5056114;28;19978;-27
2023/12/03 01:18:03;;;;;;;;;;;;;;;;;;5056001;28;20303;-24
2023/12/03 01:20:29;;;;;;;;;;;;;;;;;;5055866;28;19974;-23
2023/12/03 01:22:55;;;;;;;;;;;;;;;;;;5055897;28;19905;-28
2023/12/03 01:25:21;;;;;;;;;;;;;;;;;;5055669;28;20366;-23
2023/12/03 01:27:47;;;;;;;;;;;;;;;;;;5055681;28;19909;-26
2023/12/03 01:30:13;;;;;;;;;;;;;;;;;;5055571;28;19909;-24
2023/12/03 01:32:39;;;;;;;;;;;;;;;;;;5055687;28;20355;-27
2023/12/03 01:35:05;;;;;;;;;;;;;;;;;;5055525;28;19919;-25
2023/12/03 01:37:31;;;;;;;;;;;;;;;;;;5055447;28;20352;-21
2023/12/03 01:39:57;;;;;;;;;;;;;;;;;;5055637;28;19919;-21
2023/12/03 01:42:23;;;;;;;;;;;;;;;;;;5055274;28;19927;-23
2023/12/03 01:44:49;;;;;;;;;;;;;;;;;;5055208;28;20020;-25
2023/12/03 01:47:15;;;;;;;;;;;;;;;;;;5055503;28;19974;-23
2023/12/03 01:49:41;;;;;;;;;;;;;;;;;;5055267;28;19948;-27
2023/12/03 01:52:07;;;;;;;;;;;;;;;;;;5055402;28;19963;-28
2023/12/03 01:54:33;;;;;;;;;;;;;;;;;;5055159;28;20293;-24
2023/12/03 01:56:59;;;;;;;;;;;;;;;;;;5055415;28;20007;-22
2023/12/03 01:59:25;;;;;;;;;;;;;;;;;;5055069;28;19916;-22
2023/12/03 02:01:51;;;;;;;;;;;;;;;;;;5055172;28;20325;-24
2023/12/03 02:04:17;;;;;;;;;;;;;;;;;;5055132;28;19921;-27
2023/12/03 02:06:43;;;;;;;;;;;;;;;;;;5055362;28;20351;-23
2023/12/03 02:09:09;;;;;;;;;;;;;;;;;;5055373;28;19944;-25
2023/12/03 02:11:35;;;;;;;;;;;;;;;;;;5055174;28;20268;-26
2023/12/03 02:14:01;;;;;;;;;;;;;;;;;;5054052;28;19909;-27
2023/12/03 02:16:27;;;;;;;;;;;;;;;;;;5054067;28;19909;-25
2023/12/03 02:18:52;;;;;;;;;;;;;;;;;;5055218;28;19909;-20
2023/12/03 02:21:18;;;;;;;;;;;;;;;;;;5055002;28;19991;-23
2023/12/03 02:23:46;;;;;;;;;;;;;;;;;;5054868;28;19915;-21
2023/12/03 02:26:12;;;;;;;;;;;;;;;;;;5054807;28;20224;-25
2023/12/03 02:28:38;;;;;;;;;;;;;;;;;;5054871;28;20078;-23
2023/12/03 02:31:04;;;;;;;;;;;;;;;;;;5055083;28;19992;-26
2023/12/03 02:33:30;;;;;;;;;;;;;;;;;;5054734;28;19931;-22
2023/12/03 02:35:56;;;;;;;;;;;;;;;;;;5054742;28;19913;-30
2023/12/03 02:38:22;;;;;;;;;;;;;;;;;;5053759;28;19982;-27
2023/12/03 02:40:48;;;;;;;;;;;;;;;;;;5054626;28;19909;-22
2023/12/03 02:43:14;;;;;;;;;;;;;;;;;;5054840;28;19909;-26
2023/12/03 02:45:40;;;;;;;;;;;;;;;;;;5054557;28;20000;-22
2023/12/03 02:48:06;;;;;;;;;;;;;;;;;;5054929;28;20267;-23
2023/12/03 02:50:32;;;;;;;;;;;;;;;;;;5054587;28;19916;-24
2023/12/03 02:52:58;;;;;;;;;;;;;;;;;;5060481;28;19909;-29
2023/12/03 02:55:24;;;;;;;;;;;;;;;;;;5061228;28;20007;-24
2023/12/03 02:57:50;;;;;;;;;;;;;;;;;;5061191;28;19916;-24
2023/12/03 03:00:16;;;;;;;;;;;;;;;;;;5061207;28;19909;-28
2023/12/03 03:02:42;;;;;;;;;;;;;;;;;;5061075;28;20263;-23
2023/12/03 03:05:08;;;;;;;;;;;;;;;;;;5060937;28;19974;-26
2023/12/03 03:07:34;;;;;;;;;;;;;;;;;;5061145;28;19909;-24
2023/12/03 03:10:00;;;;;;;;;;;;;;;;;;5061088;28;20327;-24
2023/12/03 03:12:26;;;;;;;;;;;;;;;;;;5061021;28;19908;-26
2023/12/03 03:14:51;;;;;;;;;;;;;;;;;;5061282;28;19915;-23
2023/12/03 03:17:17;;;;;;;;;;;;;;;;;;5061002;28;20460;-23
2023/12/03 03:19:43;;;;;;;;;;;;;;;;;;5061204;28;19916;-23
2023/12/03 03:22:09;;;;;;;;;;;;;;;;;;5060869;28;19920;-28
2023/12/03 03:24:35;;;;;;;;;;;;;;;;;;5061126;28;19909;-29
2023/12/03 03:27:01;;;;;;;;;;;;;;;;;;5060984;28;19909;-27
2023/12/03 03:29:27;;;;;;;;;;;;;;;;;;5060920;28;19991;-27
2023/12/03 03:31:53;;;;;;;;;;;;;;;;;;5061123;28;20260;-29
2023/12/03 03:34:19;;;;;;;;;;;;;;;;;;5061151;28;19964;-23
2023/12/03 03:36:45;;;;;;;;;;;;;;;;;;5061158;28;20316;-29
2023/12/03 03:39:11;;;;;;;;;;;;;;;;;;5060874;28;20344;-23
2023/12/03 03:41:37;;;;;;;;;;;;;;;;;;5060857;28;19948;-22
2023/12/03 03:44:03;;;;;;;;;;;;;;;;;;5060709;28;20319;-22
2023/12/03 03:46:29;;;;;;;;;;;;;;;;;;5060769;28;19917;-23
2023/12/03 03:48:55;;;;;;;;;;;;;;;;;;5061050;28;19913;-25
2023/12/03 03:51:21;;;;;;;;;;;;;;;;;;5060720;28;20315;-24
2023/12/03 03:53:47;;;;;;;;;;;;;;;;;;5060696;28;19909;-27
2023/12/03 03:56:13;;;;;;;;;;;;;;;;;;5060730;28;19951;-24
2023/12/03 03:58:39;;;;;;;;;;;;;;;;;;5060959;28;19978;-23
2023/12/03 04:01:05;;;;;;;;;;;;;;;;;;5060964;28;19996;-24
2023/12/03 04:03:31;;;;;;;;;;;;;;;;;;5057400;28;19917;-27
2023/12/03 04:05:57;;;;;;;;;;;;;;;;;;5057438;28;19920;-26
2023/12/03 04:08:23;;;;;;;;;;;;;;;;;;5057694;28;19977;-25
2023/12/03 04:10:49;;;;;;;;;;;;;;;;;;5057642;28;20259;-28
2023/12/03 04:13:15;;;;;;;;;;;;;;;;;;5057346;28;19913;-23
2023/12/03 04:15:41;;;;;;;;;;;;;;;;;;5057549;28;19909;-27
2023/12/03 04:18:07;;;;;;;;;;;;;;;;;;5057237;28;20356;-23
2023/12/03 04:20:33;;;;;;;;;;;;;;;;;;5057473;28;19916;-28
2023/12/03 04:22:59;;;;;;;;;;;;;;;;;;5057139;28;19912;-29
2023/12/03 04:25:25;;;;;;;;;;;;;;;;;;5057331;28;19913;-25
2023/12/03 04:27:50;;;;;;;;;;;;;;;;;;5057037;28;19913;-25
2023/12/03 04:30:16;;;;;;;;;;;;;;;;;;5057026;28;19909;-24
2023/12/03 04:32:42;;;;;;;;;;;;;;;;;;5057161;28;19948;-30
2023/12/03 04:35:08;;;;;;;;;;;;;;;;;;5056946;28;20344;-29
2023/12/03 04:37:34;;;;;;;;;;;;;;;;;;5057106;28;19971;-24
2023/12/03 04:40:00;;;;;;;;;;;;;;;;;;5056847;28;19909;-23
2023/12/03 04:42:26;;;;;;;;;;;;;;;;;;5056903;28;19909;-25
2023/12/03 04:44:52;;;;;;;;;;;;;;;;;;5056957;28;19958;-25
2023/12/03 04:47:18;;;;;;;;;;;;;;;;;;5056752;28;19908;-26
2023/12/03 04:49:44;;;;;;;;;;;;;;;;;;5056964;28;19909;-25
2023/12/03 04:52:10;;;;;;;;;;;;;;;;;;5056602;28;19916;-26
2023/12/03 04:54:36;;;;;;;;;;;;;;;;;;5056579;28;19959;-26
2023/12/03 04:57:02;;;;;;;;;;;;;;;;;;5056796;28;19913;-22
2023/12/03 04:59:28;;;;;;;;;;;;;;;;;;5056706;28;19913;-27
2023/12/03 05:01:54;;;;;;;;;;;;;;;;;;5056662;28;20336;-29
2023/12/03 05:04:23;;;;;;;;;;;;;;;;;;5056318;28;19921;-23
2023/12/03 05:06:49;;;;;;;;;;;;;;;;;;5056164;28;19917;-24
2023/12/03 05:09:15;;;;;;;;;;;;;;;;;;5056285;28;19963;-22
2023/12/03 05:11:42;;;;;;;;;;;;;;;;;;5056471;28;19948;-22
2023/12/03 05:14:08;;;;;;;;;;;;;;;;;;5055787;28;20267;-24
2023/12/03 05:16:34;;;;;;;;;;;;;;;;;;5056152;28;19908;-24
2023/12/03 05:19:00;;;;;;;;;;;;;;;;;;5056328;28;19909;-24
2023/12/03 05:21:26;;;;;;;;;;;;;;;;;;5056743;28;19909;-25
2023/12/03 05:23:52;;;;;;;;;;;;;;;;;;5055959;28;19915;-26
2023/12/03 05:26:18;;;;;;;;;;;;;;;;;;5055901;28;19912;-22
2023/12/03 05:28:44;;;;;;;;;;;;;;;;;;5056168;28;20382;-22
2023/12/03 05:31:10;;;;;;;;;;;;;;;;;;5055849;28;20343;-23
2023/12/03 05:33:36;;;;;;;;;;;;;;;;;;5055755;28;20252;-27
2023/12/03 05:36:02;;;;;;;;;;;;;;;;;;5055782;28;19919;-25
2023/12/03 05:38:28;;;;;;;;;;;;;;;;;;5056005;28;20008;-25
2023/12/03 05:40:54;;;;;;;;;;;;;;;;;;5055715;28;19948;-27
2023/12/03 05:43:20;;;;;;;;;;;;;;;;;;5055577;28;19937;-21
2023/12/03 05:45:46;;;;;;;;;;;;;;;;;;5055604;28;19962;-22
2023/12/03 05:48:12;;;;;;;;;;;;;;;;;;5055807;28;19909;-23
2023/12/03 05:50:38;;;;;;;;;;;;;;;;;;5056235;28;19967;-22
2023/12/03 05:53:04;;;;;;;;;;;;;;;;;;5055403;28;19916;-25
2023/12/03 05:55:30;;;;;;;;;;;;;;;;;;5055332;28;20000;-24
2023/12/03 05:57:56;;;;;;;;;;;;;;;;;;5055676;28;19986;-24
2023/12/03 06:00:22;;;;;;;;;;;;;;;;;;5055396;28;20318;-23
2023/12/03 06:02:48;;;;;;;;;;;;;;;;;;5055290;28;19916;-26
2023/12/03 06:05:14;;;;;;;;;;;;;;;;;;5055095;28;19921;-23
2023/12/03 06:07:40;;;;;;;;;;;;;;;;;;5055235;28;19948;-26
2023/12/03 06:10:06;;;;;;;;;;;;;;;;;;5055423;28;20363;-26
2023/12/03 06:12:32;;;;;;;;;;;;;;;;;;5055076;28;20370;-27
2023/12/03 06:14:58;;;;;;;;;;;;;;;;;;5055329;28;19913;-22
2023/12/03 06:17:24;;;;;;;;;;;;;;;;;;5055007;28;19909;-23
2023/12/03 06:19:50;;;;;;;;;;;;;;;;;;5054985;28;20008;-21
2023/12/03 06:22:16;;;;;;;;;;;;;;;;;;5054958;28;19916;-27
2023/12/03 06:24:42;;;;;;;;;;;;;;;;;;5055124;28;19920;-31
2023/12/03 06:27:08;;;;;;;;;;;;;;;;;;5054248;28;20267;-28
2023/12/03 06:29:34;;;;;;;;;;;;;;;;;;5054881;28;19909;-23
2023/12/03 06:32:00;;;;;;;;;;;;;;;;;;5054776;28;20343;-21
2023/12/03 06:34:26;;;;;;;;;;;;;;;;;;5055069;28;20236;-22
2023/12/03 06:36:52;;;;;;;;;;;;;;;;;;5054801;28;20374;-25
2023/12/03 06:39:19;;;;;;;;;;;;;;;;;;5054786;28;20267;-23
2023/12/03 06:41:45;;;;;;;;;;;;;;;;;;5054764;28;19908;-22
2023/12/03 06:44:11;;;;;;;;;;;;;;;;;;5054678;28;19991;-28
2023/12/03 06:46:37;;;;;;;;;;;;;;;;;;5054842;28;20393;-26
2023/12/03 06:49:02;;;;;;;;;;;;;;;;;;5053631;28;19995;-26
2023/12/03 06:51:28;;;;;;;;;;;;;;;;;;5054890;28;19924;-25
2023/12/03 06:53:54;;;;;;;;;;;;;;;;;;5054776;28;19919;-25
2023/12/03 06:56:20;;;;;;;;;;;;;;;;;;5054819;28;19967;-28
2023/12/03 06:58:46;;;;;;;;;;;;;;;;;;5054583;28;20311;-22
2023/12/03 07:01:13;;;;;;;;;;;;;;;;;;5054492;28;19908;-22
2023/12/03 07:03:39;;;;;;;;;;;;;;;;;;5054254;28;19943;-23
2023/12/03 07:06:05;;;;;;;;;;;;;;;;;;5054409;28;19913;-22
2023/12/03 07:08:31;;;;;;;;;;;;;;;;;;5054705;28;19909;-23
2023/12/03 07:10:57;;;;;;;;;;;;;;;;;;5054426;28;20026;-23
2023/12/03 07:13:23;;;;;;;;;;;;;;;;;;5054458;28;19955;-26
2023/12/03 07:15:49;;;;;;;;;;;;;;;;;;5054412;28;20362;-25
2023/12/03 07:18:15;;;;;;;;;;;;;;;;;;5054391;28;19912;-26
2023/12/03 07:20:41;;;;;;;;;;;;;;;;;;5054367;28;19909;-25
2023/12/03 07:23:07;;;;;;;;;;;;;;;;;;5054303;28;19909;-23
2023/12/03 07:25:33;;;;;;;;;;;;;;;;;;5054442;28;19913;-25
2023/12/03 07:27:59;;;;;;;;;;;;;;;;;;5054523;28;19913;-25
2023/12/03 07:30:25;;;;;;;;;;;;;;;;;;5054535;28;19978;-25
2023/12/03 07:32:51;;;;;;;;;;;;;;;;;;5054182;28;19917;-29
2023/12/03 07:35:17;;;;;;;;;;;;;;;;;;5054240;28;19913;-29
2023/12/03 07:37:43;;;;;;;;;;;;;;;;;;5054201;28;19944;-23
2023/12/03 07:40:09;;;;;;;;;;;;;;;;;;5058234;28;19913;-23
2023/12/03 07:42:36;;;;;;;;;;;;;;;;;;5056930;28;20267;-22
2023/12/03 07:45:02;;;;;;;;;;;;;;;;;;5056892;28;19920;-24
2023/12/03 07:47:29;;;;;;;;;;;;;;;;;;5057851;28;19909;-25
2023/12/03 07:49:55;;;;;;;;;;;;;;;;;;5057824;28;19909;-25
2023/12/03 07:52:21;;;;;;;;;;;;;;;;;;5057982;28;19909;-25
2023/12/03 07:54:47;;;;;;;;;;;;;;;;;;5058014;28;19919;-22
2023/12/03 07:57:13;;;;;;;;;;;;;;;;;;5057926;28;20332;-28
2023/12/03 07:59:39;;;;;;;;;;;;;;;;;;5057642;28;19920;-25
2023/12/03 08:02:06;;;;;;;;;;;;;;;;;;5057536;28;20378;-22
2023/12/03 08:04:32;;;;;;;;;;;;;;;;;;5057380;28;19931;-22
2023/12/03 08:06:58;;;;;;;;;;;;;;;;;;5057370;28;20251;-24
2023/12/03 08:09:24;;;;;;;;;;;;;;;;;;5057494;28;19916;-22
2023/12/03 08:11:50;;;;;;;;;;;;;;;;;;5057623;28;19920;-22
2023/12/03 08:14:16;;;;;;;;;;;;;;;;;;5057387;28;19909;-24
2023/12/03 08:16:42;;;;;;;;;;;;;;;;;;5057327;28;20377;-26
2023/12/03 08:19:08;;;;;;;;;;;;;;;;;;5056320;28;20323;-26
2023/12/03 08:21:36;;;;;;;;;;;;;;;;;;5057265;28;19984;-22
2023/12/03 08:24:03;;;;;;;;;;;;;;;;;;5057374;28;19909;-21
2023/12/03 08:26:29;;;;;;;;;;;;;;;;;;5057339;28;20331;-25
2023/12/03 08:28:55;;;;;;;;;;;;;;;;;;5057091;28;19909;-23
2023/12/03 08:31:23;;;;;;;;;;;;;;;;;;5057097;28;19915;-27
2023/12/03 08:33:49;;;;;;;;;;;;;;;;;;5056894;28;19913;-24
2023/12/03 08:36:15;;;;;;;;;;;;;;;;;;5056913;28;19909;-23
2023/12/03 08:38:41;;;;;;;;;;;;;;;;;;5055901;28;19916;-28
2023/12/03 08:41:06;;;;;;;;;;;;;;;;;;5056851;28;19935;-28
2023/12/03 08:43:32;;;;;;;;;;;;;;;;;;5056802;28;19948;-24
2023/12/03 08:45:58;;;;;;;;;;;;;;;;;;5056723;28;20247;-22
2023/12/03 08:48:24;;;;;;;;;;;;;;;;;;5057011;28;19967;-26
2023/12/03 08:50:50;;;;;;;;;;;;;;;;;;5056007;28;19908;-24
2023/12/03 08:53:16;;;;;;;;;;;;;;;;;;5056585;28;20233;-28
2023/12/03 08:55:42;;;;;;;;;;;;;;;;;;5056582;28;19908;-25
2023/12/03 08:58:08;;;;;;;;;;;;;;;;;;5057255;28;19920;-23
2023/12/03 09:00:34;;;;;;;;;;;;;;;;;;5056483;28;19987;-24
2023/12/03 09:03:00;;;;;;;;;;;;;;;;;;5056262;28;20406;-26
2023/12/03 09:05:26;;;;;;;;;;;;;;;;;;5056536;28;20011;-26
2023/12/03 09:07:52;;;;;;;;;;;;;;;;;;5056626;28;20008;-27
2023/12/03 09:10:18;;;;;;;;;;;;;;;;;;5056595;28;19921;-25
2023/12/03 09:12:44;;;;;;;;;;;;;;;;;;5056460;28;20003;-26
2023/12/03 09:15:10;;;;;;;;;;;;;;;;;;5055227;28;20347;-25
2023/12/03 09:17:37;;;;;;;;;;;;;;;;;;5056072;28;19995;-26
2023/12/03 09:20:03;;;;;;;;;;;;;;;;;;5056049;28;19948;-22
2023/12/03 09:22:29;;;;;;;;;;;;;;;;;;5056259;28;20267;-22
2023/12/03 09:24:55;;;;;;;;;;;;;;;;;;5055967;28;19909;-25
2023/12/03 09:27:21;;;;;;;;;;;;;;;;;;5056040;28;20340;-26
2023/12/03 09:29:47;;;;;;;;;;;;;;;;;;5056231;28;19985;-25
2023/12/03 09:32:13;;;;;;;;;;;;;;;;;;5056031;28;20351;-26
2023/12/03 09:34:39;;;;;;;;;;;;;;;;;;5055875;28;19912;-24
2023/12/03 09:37:05;;;;;;;;;;;;;;;;;;5055801;28;20228;-28
2023/12/03 09:39:31;;;;;;;;;;;;;;;;;;5055722;28;20255;-23
2023/12/03 09:41:57;;;;;;;;;;;;;;;;;;5054685;28;19920;-24
2023/12/03 09:44:23;;;;;;;;;;;;;;;;;;5055671;28;19909;-26
2023/12/03 09:46:49;;;;;;;;;;;;;;;;;;5055782;28;20005;-21
2023/12/03 09:49:15;;;;;;;;;;;;;;;;;;5055856;28;20227;-24
2023/12/03 09:51:41;;;;;;;;;;;;;;;;;;5055569;28;19909;-28
2023/12/03 09:54:08;;;;;;;;;;;;;;;;;;5055668;28;20012;-25
2023/12/03 09:56:34;;;;;;;;;;;;;;;;;;5055402;28;20362;-31
2023/12/03 09:59:00;;;;;;;;;;;;;;;;;;5055386;28;19996;-24
2023/12/03 10:01:26;;;;;;;;;;;;;;;;;;5055133;28;19909;-21
2023/12/03 10:03:52;;;;;;;;;;;;;;;;;;5055031;28;20296;-25
2023/12/03 10:06:19;;;;;;;;;;;;;;;;;;5055224;28;20000;-25
2023/12/03 10:08:46;;;;;;;;;;;;;;;;;;5055205;28;20023;-26
2023/12/03 10:11:13;;;;;;;;;;;;;;;;;;5055477;28;19909;-21
2023/12/03 10:13:39;;;;;;;;;;;;;;;;;;5055105;28;19924;-22
2023/12/03 10:16:05;;;;;;;;;;;;;;;;;;5055065;28;19909;-26
2023/12/03 10:18:31;;;;;;;;;;;;;;;;;;5055325;28;20003;-23
2023/12/03 10:20:57;;;;;;;;;;;;;;;;;;5054936;28;19909;-25
2023/12/03 10:23:23;;;;;;;;;;;;;;;;;;5055002;28;19920;-23
2023/12/03 10:25:49;;;;;;;;;;;;;;;;;;5055150;28;19966;-23
2023/12/03 10:28:15;;;;;;;;;;;;;;;;;;5054936;28;20330;-26
2023/12/03 10:30:42;;;;;;;;;;;;;;;;;;5055135;28;19909;-23
2023/12/03 10:33:11;;;;;;;;;;;;;;;;;;5054941;28;19909;-32
2023/12/03 10:35:37;;;;;;;;;;;;;;;;;;5054840;28;20358;-25
2023/12/03 10:38:03;;;;;;;;;;;;;;;;;;5055059;28;20309;-27
2023/12/03 10:40:29;;;;;;;;;;;;;;;;;;5054759;28;19913;-29
2023/12/03 10:42:55;;;;;;;;;;;;;;;;;;5054690;28;19909;-24
2023/12/03 10:45:21;;;;;;;;;;;;;;;;;;5054895;28;19974;-23
2023/12/03 10:47:47;;;;;;;;;;;;;;;;;;5054714;28;19916;-23
2023/12/03 10:50:14;;;;;;;;;;;;;;;;;;5054916;28;19913;-25
2023/12/03 10:52:40;;;;;;;;;;;;;;;;;;5054494;28;19909;-28
2023/12/03 10:55:09;;;;;;;;;;;;;;;;;;5054574;28;20067;-26
2023/12/03 10:57:35;;;;;;;;;;;;;;;;;;5054846;28;19916;-27
2023/12/03 11:00:02;;;;;;;;;;;;;;;;;;5054527;28;20000;-24
2023/12/03 11:02:28;;;;;;;;;;;;;;;;;;5054395;28;19920;-27
2023/12/03 11:04:54;;;;;;;;;;;;;;;;;;5054309;28;19921;-24
2023/12/03 11:07:20;;;;;;;;;;;;;;;;;;5054454;28;19919;-24
2023/12/03 11:09:46;;;;;;;;;;;;;;;;;;5054472;28;19909;-26
2023/12/03 11:12:12;;;;;;;;;;;;;;;;;;5054595;28;19955;-29
2023/12/03 11:14:38;;;;;;;;;;;;;;;;;;5058535;28;19908;-25
2023/12/03 11:17:04;;;;;;;;;;;;;;;;;;5058691;28;20328;-21
2023/12/03 11:19:30;;;;;;;;;;;;;;;;;;5058421;28;20358;-25
2023/12/03 11:21:56;;;;;;;;;;;;;;;;;;5057389;28;19909;-26
2023/12/03 11:24:22;;;;;;;;;;;;;;;;;;5058341;28;19956;-22
2023/12/03 11:26:48;;;;;;;;;;;;;;;;;;5057248;28;19913;-21
2023/12/03 11:29:14;;;;;;;;;;;;;;;;;;5058749;28;19908;-22
2023/12/03 11:31:40;;;;;;;;;;;;;;;;;;5058781;28;19909;-23
2023/12/03 11:34:06;;;;;;;;;;;;;;;;;;5058037;28;19915;-24
2023/12/03 11:36:32;;;;;;;;;;;;;;;;;;5058008;28;19909;-25
2023/12/03 11:38:58;;;;;;;;;;;;;;;;;;5057049;28;19920;-24
2023/12/03 11:41:24;;;;;;;;;;;;;;;;;;5057968;28;20262;-23
2023/12/03 11:43:50;;;;;;;;;;;;;;;;;;5056929;28;19992;-23
2023/12/03 11:46:16;;;;;;;;;;;;;;;;;;5058164;28;19913;-29
2023/12/03 11:48:42;;;;;;;;;;;;;;;;;;5057899;28;19916;-25
2023/12/03 11:51:09;;;;;;;;;;;;;;;;;;5057862;28;19909;-27
2023/12/03 11:53:37;;;;;;;;;;;;;;;;;;5057765;28;19909;-22
2023/12/03 11:56:03;;;;;;;;;;;;;;;;;;5057656;28;20030;-25
2023/12/03 11:58:29;;;;;;;;;;;;;;;;;;5057692;28;19919;-27
2023/12/03 12:00:55;;;;;;;;;;;;;;;;;;5057880;28;20439;-24
2023/12/03 12:03:21;;;;;;;;;;;;;;;;;;5057378;28;19924;-25
2023/12/03 12:05:47;;;;;;;;;;;;;;;;;;5057480;28;19924;-25
2023/12/03 12:08:13;;;;;;;;;;;;;;;;;;5057543;28;19909;-24
2023/12/03 12:10:39;;;;;;;;;;;;;;;;;;5057750;28;19909;-23
2023/12/03 12:13:05;;;;;;;;;;;;;;;;;;5057314;28;19908;-27
2023/12/03 12:15:31;;;;;;;;;;;;;;;;;;5057388;28;20004;-24
2023/12/03 12:17:57;;;;;;;;;;;;;;;;;;5057261;28;19943;-29
2023/12/03 12:20:23;;;;;;;;;;;;;;;;;;5057271;28;19935;-29
2023/12/03 12:22:49;;;;;;;;;;;;;;;;;;5057459;28;20337;-26
2023/12/03 12:25:15;;;;;;;;;;;;;;;;;;5056042;28;19917;-24
2023/12/03 12:27:42;;;;;;;;;;;;;;;;;;5057443;28;19991;-24
2023/12/03 12:30:08;;;;;;;;;;;;;;;;;;5057056;28;20390;-22
2023/12/03 12:32:34;;;;;;;;;;;;;;;;;;5057024;28;19952;-22
2023/12/03 12:35:00;;;;;;;;;;;;;;;;;;5056991;28;20366;-23
2023/12/03 12:37:26;;;;;;;;;;;;;;;;;;5057010;28;19909;-28
2023/12/03 12:39:51;;;;;;;;;;;;;;;;;;5056957;28;19909;-23
2023/12/03 12:42:17;;;;;;;;;;;;;;;;;;5056780;28;19909;-22
2023/12/03 12:44:44;;;;;;;;;;;;;;;;;;5056890;28;19909;-21
2023/12/03 12:47:10;;;;;;;;;;;;;;;;;;5056958;28;19927;-23
2023/12/03 12:49:36;;;;;;;;;;;;;;;;;;5057041;28;20003;-24
2023/12/03 12:52:02;;;;;;;;;;;;;;;;;;5056584;28;19909;-22
2023/12/03 12:54:28;;;;;;;;;;;;;;;;;;5056666;28;19913;-24
2023/12/03 12:56:54;;;;;;;;;;;;;;;;;;5057106;28;19935;-26
2023/12/03 12:59:20;;;;;;;;;;;;;;;;;;5056587;28;20178;-27
2023/12/03 13:01:47;;;;;;;;;;;;;;;;;;5056524;28;19978;-22
2023/12/03 13:04:13;;;;;;;;;;;;;;;;;;5056452;28;19920;-23
2023/12/03 13:06:39;;;;;;;;;;;;;;;;;;5056636;28;20358;-27
2023/12/03 13:09:05;;;;;;;;;;;;;;;;;;5056387;28;19909;-26
2023/12/03 13:11:31;;;;;;;;;;;;;;;;;;5056377;28;19909;-23
2023/12/03 13:13:57;;;;;;;;;;;;;;;;;;5056495;28;20007;-26
2023/12/03 13:16:23;;;;;;;;;;;;;;;;;;5056534;28;20050;-24
2023/12/03 13:18:49;;;;;;;;;;;;;;;;;;5056489;28;19986;-28
2023/12/03 13:21:15;;;;;;;;;;;;;;;;;;5055216;28;19909;-24
2023/12/03 13:23:41;;;;;;;;;;;;;;;;;;5056063;28;19999;-26
2023/12/03 13:26:07;;;;;;;;;;;;;;;;;;5055976;28;20421;-26
2023/12/03 13:28:33;;;;;;;;;;;;;;;;;;5056276;28;19948;-26
2023/12/03 13:30:59;;;;;;;;;;;;;;;;;;5055976;28;20227;-26
2023/12/03 13:33:26;;;;;;;;;;;;;;;;;;5055864;28;19985;-26
2023/12/03 13:35:52;;;;;;;;;;;;;;;;;;5055590;28;19909;-26
2023/12/03 13:38:18;;;;;;;;;;;;;;;;;;5055874;28;19909;-24
2023/12/03 13:40:44;;;;;;;;;;;;;;;;;;5054814;28;20033;-25
2023/12/03 13:43:10;;;;;;;;;;;;;;;;;;5055686;28;19912;-26
2023/12/03 13:45:36;;;;;;;;;;;;;;;;;;5056113;28;20400;-27
2023/12/03 13:48:02;;;;;;;;;;;;;;;;;;5055643;28;19962;-26
2023/12/03 13:50:28;;;;;;;;;;;;;;;;;;5055562;28;19908;-26
2023/12/03 13:52:54;;;;;;;;;;;;;;;;;;5055446;28;19920;-25
2023/12/03 13:55:20;;;;;;;;;;;;;;;;;;5055759;28;20362;-25
2023/12/03 13:57:46;;;;;;;;;;;;;;;;;;5055421;28;19909;-26
2023/12/03 14:00:12;;;;;;;;;;;;;;;;;;5055401;28;19913;-26
2023/12/03 14:02:38;;;;;;;;;;;;;;;;;;5055572;28;19909;-23
2023/12/03 14:05:04;;;;;;;;;;;;;;;;;;5055089;28;19920;-23
2023/12/03 14:07:30;;;;;;;;;;;;;;;;;;5055297;28;20313;-25
2023/12/03 14:09:56;;;;;;;;;;;;;;;;;;5055483;28;19909;-23
2023/12/03 14:12:22;;;;;;;;;;;;;;;;;;5055367;28;19920;-22
2023/12/03 14:14:48;;;;;;;;;;;;;;;;;;5055136;28;20255;-25
2023/12/03 14:17:14;;;;;;;;;;;;;;;;;;5055082;28;19908;-28
2023/12/03 14:19:40;;;;;;;;;;;;;;;;;;5055039;28;19920;-21
2023/12/03 14:22:06;;;;;;;;;;;;;;;;;;5055242;28;19958;-24
2023/12/03 14:24:32;;;;;;;;;;;;;;;;;;5054993;28;19908;-23
2023/12/03 14:26:58;;;;;;;;;;;;;;;;;;5054824;28;19912;-23
2023/12/03 14:29:24;;;;;;;;;;;;;;;;;;5054752;28;19920;-21
2023/12/03 14:31:50;;;;;;;;;;;;;;;;;;5054829;28;19913;-22
2023/12/03 14:34:16;;;;;;;;;;;;;;;;;;5054897;28;20321;-23
2023/12/03 14:36:42;;;;;;;;;;;;;;;;;;5054871;28;19915;-29
2023/12/03 14:39:08;;;;;;;;;;;;;;;;;;5054854;28;20266;-25
2023/12/03 14:41:34;;;;;;;;;;;;;;;;;;5054722;28;19913;-29
2023/12/03 14:44:00;;;;;;;;;;;;;;;;;;5054583;28;19909;-24
2023/12/03 14:46:26;;;;;;;;;;;;;;;;;;5054621;28;19955;-25
2023/12/03 14:48:52;;;;;;;;;;;;;;;;;;5054032;28;20228;-27
2023/12/03 14:51:18;;;;;;;;;;;;;;;;;;5054630;28;19909;-26
2023/12/03 14:53:44;;;;;;;;;;;;;;;;;;5054814;28;19909;-24
2023/12/03 14:56:10;;;;;;;;;;;;;;;;;;5054881;28;19908;-23
2023/12/03 14:58:36;;;;;;;;;;;;;;;;;;5054851;28;20332;-25
2023/12/03 15:01:03;;;;;;;;;;;;;;;;;;5055356;28;19959;-23
2023/12/03 15:03:29;;;;;;;;;;;;;;;;;;5053351;28;20216;-23
2023/12/03 15:05:55;;;;;;;;;;;;;;;;;;5054460;28;20334;-24
2023/12/03 15:08:21;;;;;;;;;;;;;;;;;;5055064;28;19915;-22
2023/12/03 15:10:47;;;;;;;;;;;;;;;;;;5054538;28;20022;-26
2023/12/03 15:13:13;;;;;;;;;;;;;;;;;;5054450;28;19916;-26
2023/12/03 15:15:39;;;;;;;;;;;;;;;;;;5054444;28;19966;-22
2023/12/03 15:18:05;;;;;;;;;;;;;;;;;;5054434;28;19909;-28
2023/12/03 15:20:31;;;;;;;;;;;;;;;;;;5055165;28;19912;-21
2023/12/03 15:22:58;;;;;;;;;;;;;;;;;;5054317;28;19935;-24
2023/12/03 15:25:24;;;;;;;;;;;;;;;;;;5054573;28;20233;-29
2023/12/03 15:27:50;;;;;;;;;;;;;;;;;;5054593;28;19917;-24
2023/12/03 15:30:20;;;;;;;;;;;;;;;;;;5054328;28;19931;-30
2023/12/03 15:32:46;;;;;;;;;;;;;;;;;;5054420;28;19913;-23
2023/12/03 15:35:12;;;;;;;;;;;;;;;;;;5054561;28;20400;-25
2023/12/03 15:37:38;;;;;;;;;;;;;;;;;;5054279;28;19958;-24
2023/12/03 15:40:04;;;;;;;;;;;;;;;;;;5054190;28;20008;-22
2023/12/03 15:42:30;;;;;;;;;;;;;;;;;;5054328;28;20263;-21
2023/12/03 15:44:56;;;;;;;;;;;;;;;;;;5054077;28;20051;-26
2023/12/03 15:47:22;;;;;;;;;;;;;;;;;;5054124;28;20010;-22
2023/12/03 15:49:48;;;;;;;;;;;;;;;;;;5054171;28;19948;-25
2023/12/03 15:52:14;;;;;;;;;;;;;;;;;;5054077;28;20306;-22
2023/12/03 15:54:42;;;;;;;;;;;;;;;;;;5054335;28;20251;-22
2023/12/03 15:57:08;;;;;;;;;;;;;;;;;;5054021;28;19919;-25
2023/12/03 15:59:34;;;;;;;;;;;;;;;;;;5056217;28;19913;-26
2023/12/03 16:02:00;;;;;;;;;;;;;;;;;;5057798;28;19913;-26
2023/12/03 16:04:26;;;;;;;;;;;;;;;;;;5057581;28;19928;-26
2023/12/03 16:06:52;;;;;;;;;;;;;;;;;;5057769;28;19917;-24
2023/12/03 16:09:18;;;;;;;;;;;;;;;;;;5057576;28;20000;-21
2023/12/03 16:11:46;;;;;;;;;;;;;;;;;;5057512;28;20051;-23
2023/12/03 16:14:12;;;;;;;;;;;;;;;;;;5057349;28;20002;-25
2023/12/03 16:16:38;;;;;;;;;;;;;;;;;;5057930;28;19952;-24
2023/12/03 16:19:04;;;;;;;;;;;;;;;;;;5057301;28;20374;-23
2023/12/03 16:21:30;;;;;;;;;;;;;;;;;;5057594;28;19912;-23
2023/12/03 16:23:56;;;;;;;;;;;;;;;;;;5057178;28;19919;-27
2023/12/03 16:26:22;;;;;;;;;;;;;;;;;;5057116;28;19960;-23
2023/12/03 16:28:52;;;;;;;;;;;;;;;;;;5057079;28;20263;-25
2023/12/03 16:31:21;;;;;;;;;;;;;;;;;;5057398;28;19909;-28
2023/12/03 16:33:47;;;;;;;;;;;;;;;;;;5057002;28;20337;-26
2023/12/03 16:36:16;;;;;;;;;;;;;;;;;;5057087;28;19913;-22